sensor_id;sensor_type;location;lat;lon;timestamp;temperature;humidity
19206;DHT22;59358;52.134;5.596;2023-04-15T00:01:27;7.70;99.90
19206;DHT22;59358;52.134;5.596;2023-04-15T00:03:55;7.70;99.90
19206;DHT22;59358;52.134;5.596;2023-04-15T00:06:22;7.80;99.90
19206;DHT22;59358;52.134;5.596;2023-04-15T00:08:49;7.80;99.90
19206;DHT22;59358;52.134;5.596;2023-04-15T00:11:16;7.70;99.90
19206;DHT22;59358;52.134;5.596;2023-04-15T00:13:45;7.70;99.90
19206;DHT22;59358;52.134;5.596;2023-04-15T00:16:12;7.70;99.90
19206;DHT22;59358;52.134;5.596;2023-04-15T00:18:39;7.70;99.90
19206;DHT22;59358;52.134;5.596;2023-04-15T00:21:07;7.60;99.90
19206;DHT22;59358;52.134;5.596;2023-04-15T00:23:34;7.60;99.90
19206;DHT22;59358;52.134;5.596;2023-04-15T00:26:02;7.50;99.90
19206;DHT22;59358;52.134;5.596;2023-04-15T00:28:28;7.50;99.90
19206;DHT22;59358;52.134;5.596;2023-04-15T00:30:55;7.50;99.90
19206;DHT22;59358;52.134;5.596;2023-04-15T00:33:22;7.40;99.90
19206;DHT22;59358;52.134;5.596;2023-04-15T00:35:49;7.40;99.90
19206;DHT22;59358;52.134;5.596;2023-04-15T00:38:17;7.50;99.90
19206;DHT22;59358;52.134;5.596;2023-04-15T00:40:44;7.40;99.90
19206;DHT22;59358;52.134;5.596;2023-04-15T00:43:11;7.40;99.90
19206;DHT22;59358;52.134;5.596;2023-04-15T00:45:38;7.40;99.90
19206;DHT22;59358;52.134;5.596;2023-04-15T00:48:05;7.40;99.90
19206;DHT22;59358;52.134;5.596;2023-04-15T00:50:34;7.40;99.90
19206;DHT22;59358;52.134;5.596;2023-04-15T00:53:00;7.30;99.90
19206;DHT22;59358;52.134;5.596;2023-04-15T00:55:28;7.20;99.90
19206;DHT22;59358;52.134;5.596;2023-04-15T00:57:56;7.20;99.90
19206;DHT22;59358;52.134;5.596;2023-04-15T01:00:22;7.20;99.90
19206;DHT22;59358;52.134;5.596;2023-04-15T01:02:50;7.10;99.90
19206;DHT22;59358;52.134;5.596;2023-04-15T01:05:17;7.10;99.90
19206;DHT22;59358;52.134;5.596;2023-04-15T01:07:45;7.10;99.90
19206;DHT22;59358;52.134;5.596;2023-04-15T01:10:12;7.10;99.90
19206;DHT22;59358;52.134;5.596;2023-04-15T01:12:40;7.00;99.90
19206;DHT22;59358;52.134;5.596;2023-04-15T01:15:08;7.00;99.90
19206;DHT22;59358;52.134;5.596;2023-04-15T01:17:36;7.00;99.90
19206;DHT22;59358;52.134;5.596;2023-04-15T01:20:03;7.00;99.90
19206;DHT22;59358;52.134;5.596;2023-04-15T01:22:32;6.90;99.90
19206;DHT22;59358;52.134;5.596;2023-04-15T01:25:04;7.00;99.90
19206;DHT22;59358;52.134;5.596;2023-04-15T01:27:34;6.90;99.90
19206;DHT22;59358;52.134;5.596;2023-04-15T01:30:01;6.90;99.90
19206;DHT22;59358;52.134;5.596;2023-04-15T01:32:29;6.90;99.90
19206;DHT22;59358;52.134;5.596;2023-04-15T01:34:56;6.80;99.90
19206;DHT22;59358;52.134;5.596;2023-04-15T01:37:23;6.80;99.90
19206;DHT22;59358;52.134;5.596;2023-04-15T01:39:50;6.70;99.90
19206;DHT22;59358;52.134;5.596;2023-04-15T01:42:17;6.70;99.90
19206;DHT22;59358;52.134;5.596;2023-04-15T01:44:45;6.70;99.90
19206;DHT22;59358;52.134;5.596;2023-04-15T01:47:12;6.70;99.90
19206;DHT22;59358;52.134;5.596;2023-04-15T01:49:39;6.70;99.90
19206;DHT22;59358;52.134;5.596;2023-04-15T01:52:06;6.70;99.90
19206;DHT22;59358;52.134;5.596;2023-04-15T01:54:33;6.70;99.90
19206;DHT22;59358;52.134;5.596;2023-04-15T01:57:00;6.60;99.90
19206;DHT22;59358;52.134;5.596;2023-04-15T01:59:28;6.60;99.90
19206;DHT22;59358;52.134;5.596;2023-04-15T02:01:57;6.60;99.90
19206;DHT22;59358;52.134;5.596;2023-04-15T02:04:24;6.60;99.90
19206;DHT22;59358;52.134;5.596;2023-04-15T02:06:52;6.50;99.90
19206;DHT22;59358;52.134;5.596;2023-04-15T02:09:19;6.50;99.90
19206;DHT22;59358;52.134;5.596;2023-04-15T02:11:46;6.50;99.90
19206;DHT22;59358;52.134;5.596;2023-04-15T02:14:12;6.50;99.90
19206;DHT22;59358;52.134;5.596;2023-04-15T02:16:39;6.40;99.90
19206;DHT22;59358;52.134;5.596;2023-04-15T02:19:07;6.40;99.90
19206;DHT22;59358;52.134;5.596;2023-04-15T02:21:34;6.40;99.90
19206;DHT22;59358;52.134;5.596;2023-04-15T02:24:01;6.40;99.90
19206;DHT22;59358;52.134;5.596;2023-04-15T02:26:28;6.30;99.90
19206;DHT22;59358;52.134;5.596;2023-04-15T02:28:57;6.30;99.90
19206;DHT22;59358;52.134;5.596;2023-04-15T02:31:24;6.30;99.90
19206;DHT22;59358;52.134;5.596;2023-04-15T02:33:51;6.30;99.90
19206;DHT22;59358;52.134;5.596;2023-04-15T02:36:19;6.30;99.90
19206;DHT22;59358;52.134;5.596;2023-04-15T02:38:46;6.30;99.90
19206;DHT22;59358;52.134;5.596;2023-04-15T02:41:13;6.30;99.90
19206;DHT22;59358;52.134;5.596;2023-04-15T02:43:39;6.30;99.90
19206;DHT22;59358;52.134;5.596;2023-04-15T02:46:06;6.30;99.90
19206;DHT22;59358;52.134;5.596;2023-04-15T02:48:33;6.30;99.90
19206;DHT22;59358;52.134;5.596;2023-04-15T02:51:11;6.30;99.90
19206;DHT22;59358;52.134;5.596;2023-04-15T02:53:39;6.30;99.90
19206;DHT22;59358;52.134;5.596;2023-04-15T02:56:07;6.30;99.90
19206;DHT22;59358;52.134;5.596;2023-04-15T02:58:34;6.30;99.90
19206;DHT22;59358;52.134;5.596;2023-04-15T03:01:01;6.30;99.90
19206;DHT22;59358;52.134;5.596;2023-04-15T03:03:28;6.30;99.90
19206;DHT22;59358;52.134;5.596;2023-04-15T03:05:55;6.20;99.90
19206;DHT22;59358;52.134;5.596;2023-04-15T03:08:22;6.30;99.90
19206;DHT22;59358;52.134;5.596;2023-04-15T03:10:50;6.20;99.90
19206;DHT22;59358;52.134;5.596;2023-04-15T03:13:18;6.20;99.90
19206;DHT22;59358;52.134;5.596;2023-04-15T03:15:45;6.30;99.90
19206;DHT22;59358;52.134;5.596;2023-04-15T03:18:12;6.20;99.90
19206;DHT22;59358;52.134;5.596;2023-04-15T03:20:39;6.20;99.90
19206;DHT22;59358;52.134;5.596;2023-04-15T03:23:06;6.20;99.90
19206;DHT22;59358;52.134;5.596;2023-04-15T03:25:32;6.20;99.90
19206;DHT22;59358;52.134;5.596;2023-04-15T03:28:03;6.20;99.90
19206;DHT22;59358;52.134;5.596;2023-04-15T03:30:30;6.20;99.90
19206;DHT22;59358;52.134;5.596;2023-04-15T03:32:56;6.10;99.90
19206;DHT22;59358;52.134;5.596;2023-04-15T03:35:23;6.10;99.90
19206;DHT22;59358;52.134;5.596;2023-04-15T03:37:51;6.10;99.90
19206;DHT22;59358;52.134;5.596;2023-04-15T03:40:17;6.10;99.90
19206;DHT22;59358;52.134;5.596;2023-04-15T03:42:44;6.00;99.90
19206;DHT22;59358;52.134;5.596;2023-04-15T03:45:12;5.90;99.90
19206;DHT22;59358;52.134;5.596;2023-04-15T03:47:39;6.00;99.90
19206;DHT22;59358;52.134;5.596;2023-04-15T03:50:07;5.90;99.90
19206;DHT22;59358;52.134;5.596;2023-04-15T03:52:34;5.90;99.90
19206;DHT22;59358;52.134;5.596;2023-04-15T03:55:00;5.90;99.90
19206;DHT22;59358;52.134;5.596;2023-04-15T03:57:28;5.90;99.90
19206;DHT22;59358;52.134;5.596;2023-04-15T03:59:55;5.90;99.90
19206;DHT22;59358;52.134;5.596;2023-04-15T04:02:23;5.90;99.90
19206;DHT22;59358;52.134;5.596;2023-04-15T04:04:50;5.80;99.90
19206;DHT22;59358;52.134;5.596;2023-04-15T04:07:17;5.80;99.90
19206;DHT22;59358;52.134;5.596;2023-04-15T04:09:44;5.80;99.90
19206;DHT22;59358;52.134;5.596;2023-04-15T04:12:11;5.80;99.90
19206;DHT22;59358;52.134;5.596;2023-04-15T04:14:37;5.80;99.90
19206;DHT22;59358;52.134;5.596;2023-04-15T04:17:04;5.80;99.90
19206;DHT22;59358;52.134;5.596;2023-04-15T04:19:33;5.80;99.90
19206;DHT22;59358;52.134;5.596;2023-04-15T04:22:00;5.70;99.90
19206;DHT22;59358;52.134;5.596;2023-04-15T04:24:26;5.80;99.90
19206;DHT22;59358;52.134;5.596;2023-04-15T04:26:53;5.80;99.90
19206;DHT22;59358;52.134;5.596;2023-04-15T04:29:21;5.80;99.90
19206;DHT22;59358;52.134;5.596;2023-04-15T04:31:48;5.70;99.90
19206;DHT22;59358;52.134;5.596;2023-04-15T04:34:15;5.70;99.90
19206;DHT22;59358;52.134;5.596;2023-04-15T04:36:43;5.70;99.90
19206;DHT22;59358;52.134;5.596;2023-04-15T04:39:11;5.70;99.90
19206;DHT22;59358;52.134;5.596;2023-04-15T04:41:37;5.70;99.90
19206;DHT22;59358;52.134;5.596;2023-04-15T04:44:04;5.70;99.90
19206;DHT22;59358;52.134;5.596;2023-04-15T04:46:31;5.70;99.90
19206;DHT22;59358;52.134;5.596;2023-04-15T04:48:58;5.70;99.90
19206;DHT22;59358;52.134;5.596;2023-04-15T04:51:25;5.70;99.90
19206;DHT22;59358;52.134;5.596;2023-04-15T04:53:53;5.70;99.90
19206;DHT22;59358;52.134;5.596;2023-04-15T04:56:21;5.70;99.90
19206;DHT22;59358;52.134;5.596;2023-04-15T04:58:47;5.70;99.90
19206;DHT22;59358;52.134;5.596;2023-04-15T05:01:14;5.70;99.90
19206;DHT22;59358;52.134;5.596;2023-04-15T05:03:41;5.70;99.90
19206;DHT22;59358;52.134;5.596;2023-04-15T05:06:08;5.80;99.90
19206;DHT22;59358;52.134;5.596;2023-04-15T05:08:35;5.70;99.90
19206;DHT22;59358;52.134;5.596;2023-04-15T05:11:03;5.70;99.90
19206;DHT22;59358;52.134;5.596;2023-04-15T05:13:30;5.80;99.90
19206;DHT22;59358;52.134;5.596;2023-04-15T05:15:57;5.80;99.90
19206;DHT22;59358;52.134;5.596;2023-04-15T05:18:24;5.80;99.90
19206;DHT22;59358;52.134;5.596;2023-04-15T05:20:51;5.80;99.90
19206;DHT22;59358;52.134;5.596;2023-04-15T05:23:18;5.90;99.90
19206;DHT22;59358;52.134;5.596;2023-04-15T05:25:45;5.90;99.90
19206;DHT22;59358;52.134;5.596;2023-04-15T05:28:16;5.90;99.90
19206;DHT22;59358;52.134;5.596;2023-04-15T05:30:45;6.00;99.90
19206;DHT22;59358;52.134;5.596;2023-04-15T05:33:12;6.00;99.90
19206;DHT22;59358;52.134;5.596;2023-04-15T05:35:42;6.00;99.90
19206;DHT22;59358;52.134;5.596;2023-04-15T05:38:08;6.10;99.90
19206;DHT22;59358;52.134;5.596;2023-04-15T05:40:35;6.20;99.90
19206;DHT22;59358;52.134;5.596;2023-04-15T05:43:02;6.20;99.90
19206;DHT22;59358;52.134;5.596;2023-04-15T05:45:30;6.30;99.90
19206;DHT22;59358;52.134;5.596;2023-04-15T05:47:57;6.40;99.90
19206;DHT22;59358;52.134;5.596;2023-04-15T05:50:24;6.50;99.90
19206;DHT22;59358;52.134;5.596;2023-04-15T05:52:51;6.50;99.90
19206;DHT22;59358;52.134;5.596;2023-04-15T05:55:18;6.60;99.90
19206;DHT22;59358;52.134;5.596;2023-04-15T05:57:45;6.70;99.90
19206;DHT22;59358;52.134;5.596;2023-04-15T06:00:12;6.80;99.90
19206;DHT22;59358;52.134;5.596;2023-04-15T06:02:41;6.90;99.90
19206;DHT22;59358;52.134;5.596;2023-04-15T06:05:08;7.00;99.90
19206;DHT22;59358;52.134;5.596;2023-04-15T06:07:36;7.10;99.90
19206;DHT22;59358;52.134;5.596;2023-04-15T06:10:03;7.10;99.90
19206;DHT22;59358;52.134;5.596;2023-04-15T06:12:30;7.30;99.90
19206;DHT22;59358;52.134;5.596;2023-04-15T06:14:57;7.30;99.90
19206;DHT22;59358;52.134;5.596;2023-04-15T06:17:24;7.50;99.90
19206;DHT22;59358;52.134;5.596;2023-04-15T06:19:52;7.50;99.90
19206;DHT22;59358;52.134;5.596;2023-04-15T06:22:20;7.60;99.90
19206;DHT22;59358;52.134;5.596;2023-04-15T06:24:48;7.80;99.90
19206;DHT22;59358;52.134;5.596;2023-04-15T06:27:14;7.90;99.90
19206;DHT22;59358;52.134;5.596;2023-04-15T06:29:41;8.00;99.90
19206;DHT22;59358;52.134;5.596;2023-04-15T06:32:08;8.10;99.90
19206;DHT22;59358;52.134;5.596;2023-04-15T06:34:35;8.20;99.90
19206;DHT22;59358;52.134;5.596;2023-04-15T06:37:03;8.30;99.90
19206;DHT22;59358;52.134;5.596;2023-04-15T06:39:30;8.40;99.90
19206;DHT22;59358;52.134;5.596;2023-04-15T06:41:57;8.40;99.90
19206;DHT22;59358;52.134;5.596;2023-04-15T06:44:24;8.50;99.90
19206;DHT22;59358;52.134;5.596;2023-04-15T06:46:51;8.60;99.90
19206;DHT22;59358;52.134;5.596;2023-04-15T06:49:17;8.70;99.90
19206;DHT22;59358;52.134;5.596;2023-04-15T06:51:44;8.80;99.90
19206;DHT22;59358;52.134;5.596;2023-04-15T06:54:12;8.90;99.90
19206;DHT22;59358;52.134;5.596;2023-04-15T06:56:39;9.00;99.90
19206;DHT22;59358;52.134;5.596;2023-04-15T06:59:06;9.10;99.90
19206;DHT22;59358;52.134;5.596;2023-04-15T07:01:33;9.20;99.90
19206;DHT22;59358;52.134;5.596;2023-04-15T07:04:00;9.30;99.90
19206;DHT22;59358;52.134;5.596;2023-04-15T07:06:27;9.30;99.90
19206;DHT22;59358;52.134;5.596;2023-04-15T07:08:54;9.30;99.90
19206;DHT22;59358;52.134;5.596;2023-04-15T07:11:24;9.40;99.90
19206;DHT22;59358;52.134;5.596;2023-04-15T07:13:51;9.50;99.90
19206;DHT22;59358;52.134;5.596;2023-04-15T07:16:18;9.50;99.90
19206;DHT22;59358;52.134;5.596;2023-04-15T07:18:45;9.60;99.90
19206;DHT22;59358;52.134;5.596;2023-04-15T07:21:12;9.70;99.90
19206;DHT22;59358;52.134;5.596;2023-04-15T07:23:39;9.70;99.90
19206;DHT22;59358;52.134;5.596;2023-04-15T07:26:06;9.90;99.90
19206;DHT22;59358;52.134;5.596;2023-04-15T07:28:34;10.00;99.90
19206;DHT22;59358;52.134;5.596;2023-04-15T07:31:01;10.00;99.90
19206;DHT22;59358;52.134;5.596;2023-04-15T07:33:27;10.10;99.90
19206;DHT22;59358;52.134;5.596;2023-04-15T07:35:54;10.10;99.90
19206;DHT22;59358;52.134;5.596;2023-04-15T07:38:21;10.20;99.90
19206;DHT22;59358;52.134;5.596;2023-04-15T07:40:49;10.20;99.90
19206;DHT22;59358;52.134;5.596;2023-04-15T07:43:15;10.20;99.90
19206;DHT22;59358;52.134;5.596;2023-04-15T07:45:44;10.20;99.90
19206;DHT22;59358;52.134;5.596;2023-04-15T07:48:11;10.20;99.90
19206;DHT22;59358;52.134;5.596;2023-04-15T07:50:38;10.10;99.90
19206;DHT22;59358;52.134;5.596;2023-04-15T07:53:06;10.00;99.90
19206;DHT22;59358;52.134;5.596;2023-04-15T07:55:32;10.20;99.90
19206;DHT22;59358;52.134;5.596;2023-04-15T07:57:59;10.20;99.90
19206;DHT22;59358;52.134;5.596;2023-04-15T08:00:26;10.40;99.90
19206;DHT22;59358;52.134;5.596;2023-04-15T08:02:55;10.40;99.90
19206;DHT22;59358;52.134;5.596;2023-04-15T08:05:24;10.50;99.90
19206;DHT22;59358;52.134;5.596;2023-04-15T08:07:52;10.60;99.90
19206;DHT22;59358;52.134;5.596;2023-04-15T08:10:19;10.60;99.90
19206;DHT22;59358;52.134;5.596;2023-04-15T08:12:46;10.70;99.90
19206;DHT22;59358;52.134;5.596;2023-04-15T08:15:14;10.80;99.90
19206;DHT22;59358;52.134;5.596;2023-04-15T08:17:41;10.80;99.90
19206;DHT22;59358;52.134;5.596;2023-04-15T08:20:10;10.80;99.90
19206;DHT22;59358;52.134;5.596;2023-04-15T08:22:37;10.60;99.90
19206;DHT22;59358;52.134;5.596;2023-04-15T08:25:05;10.60;99.90
19206;DHT22;59358;52.134;5.596;2023-04-15T08:27:32;10.60;99.90
19206;DHT22;59358;52.134;5.596;2023-04-15T08:29:58;10.80;99.90
19206;DHT22;59358;52.134;5.596;2023-04-15T08:32:25;10.90;99.90
19206;DHT22;59358;52.134;5.596;2023-04-15T08:34:52;10.90;99.90
19206;DHT22;59358;52.134;5.596;2023-04-15T08:37:20;11.00;99.90
19206;DHT22;59358;52.134;5.596;2023-04-15T08:39:47;11.00;99.90
19206;DHT22;59358;52.134;5.596;2023-04-15T08:42:16;11.00;99.90
19206;DHT22;59358;52.134;5.596;2023-04-15T08:44:45;11.00;99.90
19206;DHT22;59358;52.134;5.596;2023-04-15T08:47:13;10.80;99.90
19206;DHT22;59358;52.134;5.596;2023-04-15T08:49:40;10.80;99.90
19206;DHT22;59358;52.134;5.596;2023-04-15T08:52:08;11.00;99.90
19206;DHT22;59358;52.134;5.596;2023-04-15T08:54:37;11.10;99.90
19206;DHT22;59358;52.134;5.596;2023-04-15T08:57:04;11.10;99.90
19206;DHT22;59358;52.134;5.596;2023-04-15T08:59:31;11.20;99.90
19206;DHT22;59358;52.134;5.596;2023-04-15T09:01:59;11.40;99.90
19206;DHT22;59358;52.134;5.596;2023-04-15T09:04:27;11.50;99.90
19206;DHT22;59358;52.134;5.596;2023-04-15T09:06:54;11.50;99.90
19206;DHT22;59358;52.134;5.596;2023-04-15T09:09:21;11.40;99.90
19206;DHT22;59358;52.134;5.596;2023-04-15T09:11:50;11.50;99.90
19206;DHT22;59358;52.134;5.596;2023-04-15T09:14:16;11.60;99.90
19206;DHT22;59358;52.134;5.596;2023-04-15T09:16:56;11.80;99.90
19206;DHT22;59358;52.134;5.596;2023-04-15T09:19:23;12.10;99.90
19206;DHT22;59358;52.134;5.596;2023-04-15T09:21:53;12.20;99.90
19206;DHT22;59358;52.134;5.596;2023-04-15T09:24:21;12.40;99.90
19206;DHT22;59358;52.134;5.596;2023-04-15T09:26:57;12.30;99.90
19206;DHT22;59358;52.134;5.596;2023-04-15T09:29:25;12.30;99.90
19206;DHT22;59358;52.134;5.596;2023-04-15T09:31:52;12.40;99.90
19206;DHT22;59358;52.134;5.596;2023-04-15T09:34:19;12.60;99.90
19206;DHT22;59358;52.134;5.596;2023-04-15T09:36:54;12.50;99.90
19206;DHT22;59358;52.134;5.596;2023-04-15T09:39:21;12.70;99.90
19206;DHT22;59358;52.134;5.596;2023-04-15T09:44:44;12.90;99.90
19206;DHT22;59358;52.134;5.596;2023-04-15T09:47:26;13.20;99.90
19206;DHT22;59358;52.134;5.596;2023-04-15T09:49:55;13.00;99.90
19206;DHT22;59358;52.134;5.596;2023-04-15T09:52:23;13.00;99.90
19206;DHT22;59358;52.134;5.596;2023-04-15T09:54:52;13.10;99.90
19206;DHT22;59358;52.134;5.596;2023-04-15T09:57:20;13.10;99.90
19206;DHT22;59358;52.134;5.596;2023-04-15T09:59:49;13.20;99.90
19206;DHT22;59358;52.134;5.596;2023-04-15T10:02:18;13.20;99.90
19206;DHT22;59358;52.134;5.596;2023-04-15T10:04:47;13.20;99.90
19206;DHT22;59358;52.134;5.596;2023-04-15T10:07:14;13.30;99.90
19206;DHT22;59358;52.134;5.596;2023-04-15T10:09:44;13.40;99.90
19206;DHT22;59358;52.134;5.596;2023-04-15T10:12:11;13.40;99.90
19206;DHT22;59358;52.134;5.596;2023-04-15T10:14:39;13.60;99.90
19206;DHT22;59358;52.134;5.596;2023-04-15T10:17:10;13.60;99.90
19206;DHT22;59358;52.134;5.596;2023-04-15T10:19:37;13.80;99.90
19206;DHT22;59358;52.134;5.596;2023-04-15T10:22:04;13.80;99.90
19206;DHT22;59358;52.134;5.596;2023-04-15T10:24:32;14.00;99.90
19206;DHT22;59358;52.134;5.596;2023-04-15T10:26:59;14.40;99.90
19206;DHT22;59358;52.134;5.596;2023-04-15T10:29:28;14.70;99.90
19206;DHT22;59358;52.134;5.596;2023-04-15T10:31:55;14.20;99.90
19206;DHT22;59358;52.134;5.596;2023-04-15T10:34:26;14.10;99.90
19206;DHT22;59358;52.134;5.596;2023-04-15T10:36:54;14.10;99.90
19206;DHT22;59358;52.134;5.596;2023-04-15T10:39:41;14.10;99.90
19206;DHT22;59358;52.134;5.596;2023-04-15T10:42:09;14.30;99.90
19206;DHT22;59358;52.134;5.596;2023-04-15T10:44:37;14.50;99.90
19206;DHT22;59358;52.134;5.596;2023-04-15T10:47:09;14.40;99.90
19206;DHT22;59358;52.134;5.596;2023-04-15T10:49:47;14.20;99.90
19206;DHT22;59358;52.134;5.596;2023-04-15T10:52:17;14.10;99.90
19206;DHT22;59358;52.134;5.596;2023-04-15T10:54:44;14.40;99.90
19206;DHT22;59358;52.134;5.596;2023-04-15T10:57:15;14.60;99.90
19206;DHT22;59358;52.134;5.596;2023-04-15T10:59:59;14.70;99.90
19206;DHT22;59358;52.134;5.596;2023-04-15T11:02:38;15.00;99.90
19206;DHT22;59358;52.134;5.596;2023-04-15T11:05:07;14.70;99.90
19206;DHT22;59358;52.134;5.596;2023-04-15T11:07:35;14.30;99.90
19206;DHT22;59358;52.134;5.596;2023-04-15T11:10:03;14.00;99.90
19206;DHT22;59358;52.134;5.596;2023-04-15T11:12:34;14.10;99.90
19206;DHT22;59358;52.134;5.596;2023-04-15T11:15:26;14.00;99.90
19206;DHT22;59358;52.134;5.596;2023-04-15T11:17:53;14.40;99.90
19206;DHT22;59358;52.134;5.596;2023-04-15T11:20:22;14.90;99.90
19206;DHT22;59358;52.134;5.596;2023-04-15T11:22:50;14.50;99.90
19206;DHT22;59358;52.134;5.596;2023-04-15T11:25:24;14.60;99.90
19206;DHT22;59358;52.134;5.596;2023-04-15T11:27:52;14.80;99.90
19206;DHT22;59358;52.134;5.596;2023-04-15T11:30:21;14.80;99.90
19206;DHT22;59358;52.134;5.596;2023-04-15T11:32:48;14.50;99.90
19206;DHT22;59358;52.134;5.596;2023-04-15T11:35:15;14.30;99.90
19206;DHT22;59358;52.134;5.596;2023-04-15T11:37:44;14.60;99.90
19206;DHT22;59358;52.134;5.596;2023-04-15T11:40:11;14.80;99.90
19206;DHT22;59358;52.134;5.596;2023-04-15T11:42:39;14.90;99.90
19206;DHT22;59358;52.134;5.596;2023-04-15T11:45:07;14.80;99.90
19206;DHT22;59358;52.134;5.596;2023-04-15T11:47:34;14.60;99.90
19206;DHT22;59358;52.134;5.596;2023-04-15T11:50:15;14.20;99.90
19206;DHT22;59358;52.134;5.596;2023-04-15T11:52:51;13.80;99.90
19206;DHT22;59358;52.134;5.596;2023-04-15T11:55:18;13.70;99.90
19206;DHT22;59358;52.134;5.596;2023-04-15T11:57:45;13.80;99.90
19206;DHT22;59358;52.134;5.596;2023-04-15T12:00:12;14.00;99.90
19206;DHT22;59358;52.134;5.596;2023-04-15T12:02:41;14.20;99.90
19206;DHT22;59358;52.134;5.596;2023-04-15T12:05:08;14.10;99.90
19206;DHT22;59358;52.134;5.596;2023-04-15T12:07:59;14.20;99.90
19206;DHT22;59358;52.134;5.596;2023-04-15T12:10:26;14.10;99.90
19206;DHT22;59358;52.134;5.596;2023-04-15T12:12:52;14.40;99.90
19206;DHT22;59358;52.134;5.596;2023-04-15T12:15:21;14.20;99.90
19206;DHT22;59358;52.134;5.596;2023-04-15T12:17:48;14.00;99.90
19206;DHT22;59358;52.134;5.596;2023-04-15T12:20:23;14.10;99.90
19206;DHT22;59358;52.134;5.596;2023-04-15T12:22:50;14.20;99.90
19206;DHT22;59358;52.134;5.596;2023-04-15T12:25:33;14.40;99.90
19206;DHT22;59358;52.134;5.596;2023-04-15T12:28:09;14.10;99.90
19206;DHT22;59358;52.134;5.596;2023-04-15T12:33:49;14.20;99.90
19206;DHT22;59358;52.134;5.596;2023-04-15T12:36:37;14.30;99.90
19206;DHT22;59358;52.134;5.596;2023-04-15T12:39:04;14.20;99.90
19206;DHT22;59358;52.134;5.596;2023-04-15T12:41:38;14.20;99.90
19206;DHT22;59358;52.134;5.596;2023-04-15T12:44:15;14.00;99.90
19206;DHT22;59358;52.134;5.596;2023-04-15T12:46:45;13.80;99.90
19206;DHT22;59358;52.134;5.596;2023-04-15T12:49:14;13.70;99.90
19206;DHT22;59358;52.134;5.596;2023-04-15T12:51:47;13.90;99.90
19206;DHT22;59358;52.134;5.596;2023-04-15T12:54:17;13.80;99.90
19206;DHT22;59358;52.134;5.596;2023-04-15T12:56:46;13.80;99.90
19206;DHT22;59358;52.134;5.596;2023-04-15T12:59:14;13.90;99.90
19206;DHT22;59358;52.134;5.596;2023-04-15T13:01:42;14.30;99.90
19206;DHT22;59358;52.134;5.596;2023-04-15T13:04:09;14.50;99.90
19206;DHT22;59358;52.134;5.596;2023-04-15T13:06:36;14.20;99.90
19206;DHT22;59358;52.134;5.596;2023-04-15T13:09:04;13.90;99.90
19206;DHT22;59358;52.134;5.596;2023-04-15T13:11:31;13.60;99.90
19206;DHT22;59358;52.134;5.596;2023-04-15T13:14:00;13.50;99.90
19206;DHT22;59358;52.134;5.596;2023-04-15T13:16:27;13.70;99.90
19206;DHT22;59358;52.134;5.596;2023-04-15T13:18:54;13.70;99.90
19206;DHT22;59358;52.134;5.596;2023-04-15T13:21:21;13.70;99.90
19206;DHT22;59358;52.134;5.596;2023-04-15T13:23:48;13.60;99.90
19206;DHT22;59358;52.134;5.596;2023-04-15T13:26:16;13.60;99.90
19206;DHT22;59358;52.134;5.596;2023-04-15T13:28:42;13.70;99.90
19206;DHT22;59358;52.134;5.596;2023-04-15T13:31:11;13.80;99.90
19206;DHT22;59358;52.134;5.596;2023-04-15T13:33:38;13.60;99.90
19206;DHT22;59358;52.134;5.596;2023-04-15T13:36:05;13.40;99.90
19206;DHT22;59358;52.134;5.596;2023-04-15T13:38:32;13.10;99.90
19206;DHT22;59358;52.134;5.596;2023-04-15T13:40:58;13.00;99.90
19206;DHT22;59358;52.134;5.596;2023-04-15T13:43:25;13.00;99.90
19206;DHT22;59358;52.134;5.596;2023-04-15T13:45:52;12.90;99.90
19206;DHT22;59358;52.134;5.596;2023-04-15T13:48:20;12.80;99.90
19206;DHT22;59358;52.134;5.596;2023-04-15T13:50:47;12.60;99.90
19206;DHT22;59358;52.134;5.596;2023-04-15T13:53:13;12.50;99.90
19206;DHT22;59358;52.134;5.596;2023-04-15T13:55:41;12.40;99.90
19206;DHT22;59358;52.134;5.596;2023-04-15T13:58:08;12.40;99.90
19206;DHT22;59358;52.134;5.596;2023-04-15T14:00:35;12.50;99.90
19206;DHT22;59358;52.134;5.596;2023-04-15T14:03:02;12.60;99.90
19206;DHT22;59358;52.134;5.596;2023-04-15T14:05:31;12.60;99.90
19206;DHT22;59358;52.134;5.596;2023-04-15T14:07:58;12.50;99.90
19206;DHT22;59358;52.134;5.596;2023-04-15T14:10:25;12.60;99.90
19206;DHT22;59358;52.134;5.596;2023-04-15T14:12:52;12.60;99.90
19206;DHT22;59358;52.134;5.596;2023-04-15T14:15:19;12.30;99.90
19206;DHT22;59358;52.134;5.596;2023-04-15T14:17:46;12.30;99.90
19206;DHT22;59358;52.134;5.596;2023-04-15T14:20:13;12.30;99.90
19206;DHT22;59358;52.134;5.596;2023-04-15T14:22:42;12.10;99.90
19206;DHT22;59358;52.134;5.596;2023-04-15T14:25:08;11.90;99.90
19206;DHT22;59358;52.134;5.596;2023-04-15T14:27:35;11.90;99.90
19206;DHT22;59358;52.134;5.596;2023-04-15T14:30:03;11.90;99.90
19206;DHT22;59358;52.134;5.596;2023-04-15T14:32:30;12.00;99.90
19206;DHT22;59358;52.134;5.596;2023-04-15T14:34:56;11.90;99.90
19206;DHT22;59358;52.134;5.596;2023-04-15T14:37:23;11.80;99.90
19206;DHT22;59358;52.134;5.596;2023-04-15T14:39:52;11.60;99.90
19206;DHT22;59358;52.134;5.596;2023-04-15T14:42:19;11.50;99.90
19206;DHT22;59358;52.134;5.596;2023-04-15T14:44:45;11.40;99.90
19206;DHT22;59358;52.134;5.596;2023-04-15T14:47:12;11.50;99.90
19206;DHT22;59358;52.134;5.596;2023-04-15T14:49:39;11.60;99.90
19206;DHT22;59358;52.134;5.596;2023-04-15T14:52:06;11.60;99.90
19206;DHT22;59358;52.134;5.596;2023-04-15T14:54:33;11.60;99.90
19206;DHT22;59358;52.134;5.596;2023-04-15T14:57:01;11.40;99.90
19206;DHT22;59358;52.134;5.596;2023-04-15T14:59:27;11.30;99.90
19206;DHT22;59358;52.134;5.596;2023-04-15T15:01:54;11.30;99.90
19206;DHT22;59358;52.134;5.596;2023-04-15T15:04:22;11.10;99.90
19206;DHT22;59358;52.134;5.596;2023-04-15T15:06:48;11.20;99.90
19206;DHT22;59358;52.134;5.596;2023-04-15T15:09:15;11.20;99.90
19206;DHT22;59358;52.134;5.596;2023-04-15T15:11:44;11.20;99.90
19206;DHT22;59358;52.134;5.596;2023-04-15T15:14:12;11.20;99.90
19206;DHT22;59358;52.134;5.596;2023-04-15T15:16:39;11.10;99.90
19206;DHT22;59358;52.134;5.596;2023-04-15T15:19:06;11.00;99.90
19206;DHT22;59358;52.134;5.596;2023-04-15T15:21:33;10.90;99.90
19206;DHT22;59358;52.134;5.596;2023-04-15T15:23:59;10.80;99.90
19206;DHT22;59358;52.134;5.596;2023-04-15T15:26:26;10.80;99.90
19206;DHT22;59358;52.134;5.596;2023-04-15T15:28:53;10.90;99.90
19206;DHT22;59358;52.134;5.596;2023-04-15T15:31:22;11.00;99.90
19206;DHT22;59358;52.134;5.596;2023-04-15T15:33:48;11.00;99.90
19206;DHT22;59358;52.134;5.596;2023-04-15T15:36:16;11.10;99.90
19206;DHT22;59358;52.134;5.596;2023-04-15T15:38:43;11.00;99.90
19206;DHT22;59358;52.134;5.596;2023-04-15T15:41:12;10.90;99.90
19206;DHT22;59358;52.134;5.596;2023-04-15T15:43:40;10.80;99.90
19206;DHT22;59358;52.134;5.596;2023-04-15T15:46:07;10.70;99.90
19206;DHT22;59358;52.134;5.596;2023-04-15T15:48:35;10.70;99.90